createdAt,value
2018-06-19T00:02:03.515Z,19.59
2018-06-19T00:04:32.023Z,19.57
2018-06-19T00:07:00.745Z,19.59
2018-06-19T00:09:29.304Z,19.60
2018-06-19T00:11:57.848Z,19.64
2018-06-19T00:14:35.661Z,19.58
2018-06-19T00:17:04.017Z,19.54
2018-06-19T00:19:32.693Z,19.51
2018-06-19T00:22:02.519Z,19.51
2018-06-19T00:24:30.952Z,19.48
2018-06-19T00:26:59.511Z,19.44
2018-06-19T00:29:30.971Z,19.42
2018-06-19T00:31:59.436Z,19.28
2018-06-19T00:37:39.106Z,19.28
2018-06-19T00:40:07.476Z,19.22
2018-06-19T00:42:35.837Z,19.23
2018-06-19T00:45:04.772Z,19.27
2018-06-19T00:47:33.053Z,19.25
2018-06-19T00:50:01.685Z,19.25
2018-06-19T00:52:31.495Z,19.20
2018-06-19T00:55:00.250Z,19.16
2018-06-19T00:57:28.906Z,19.18
2018-06-19T00:59:58.366Z,19.20
2018-06-19T01:02:27.050Z,19.32
2018-06-19T01:05:04.880Z,19.23
2018-06-19T01:07:33.270Z,19.20
2018-06-19T01:10:01.617Z,19.19
2018-06-19T01:12:30.003Z,19.14
2018-06-19T01:18:04.859Z,19.03
2018-06-19T01:20:33.172Z,19.03
2018-06-19T01:23:01.642Z,19.00
2018-06-19T01:28:22.841Z,19.05
2018-06-19T01:30:51.194Z,19.04
2018-06-19T01:33:19.528Z,19.03
2018-06-19T01:36:10.695Z,19.05
2018-06-19T01:38:39.012Z,19.05
2018-06-19T01:41:07.291Z,19.04
2018-06-19T01:43:35.674Z,19.09
2018-06-19T01:46:04.019Z,19.00
2018-06-19T01:48:33.104Z,19.00
2018-06-19T01:51:01.421Z,19.03
2018-06-19T01:53:29.737Z,18.97
2018-06-19T01:55:58.148Z,18.93
2018-06-19T01:58:26.509Z,18.90
2018-06-19T02:00:55.182Z,18.83
2018-06-19T02:03:23.622Z,18.83
2018-06-19T02:08:45.061Z,18.81
2018-06-19T02:11:13.815Z,18.87
2018-06-19T02:13:42.185Z,18.84
2018-06-19T02:16:11.494Z,18.80
2018-06-19T02:18:39.944Z,18.81
2018-06-19T02:21:08.258Z,18.80
2018-06-19T02:23:36.626Z,18.79
2018-06-19T02:26:05.090Z,18.78
2018-06-19T02:28:33.690Z,18.77
2018-06-19T02:31:02.064Z,18.75
2018-06-19T02:33:30.385Z,18.77
2018-06-19T02:36:08.361Z,18.82
2018-06-19T02:38:36.748Z,18.81
2018-06-19T02:41:05.043Z,18.83
2018-06-19T02:43:33.360Z,18.82
2018-06-19T02:46:01.788Z,18.83
2018-06-19T02:48:30.359Z,18.87
2018-06-19T02:50:58.751Z,18.96
2018-06-19T02:53:27.107Z,18.96
2018-06-19T02:55:55.528Z,19.00
2018-06-19T02:58:23.793Z,19.01
2018-06-19T03:00:52.133Z,19.04
2018-06-19T03:03:20.722Z,19.04
2018-06-19T03:05:58.544Z,19.06
2018-06-19T03:08:26.870Z,19.09
2018-06-19T03:10:55.208Z,19.08
2018-06-19T03:13:23.654Z,18.97
2018-06-19T03:16:05.744Z,18.90
2018-06-19T03:18:34.011Z,18.85
2018-06-19T03:21:02.345Z,18.82
2018-06-19T03:23:30.734Z,18.80
2018-06-19T03:26:21.804Z,18.79
2018-06-19T03:28:50.086Z,18.77
2018-06-19T03:31:18.682Z,18.80
2018-06-19T03:34:00.750Z,18.74
2018-06-19T03:36:29.069Z,18.75
2018-06-19T03:38:57.430Z,18.73
2018-06-19T03:41:26.207Z,18.68
2018-06-19T03:44:08.472Z,18.63
2018-06-19T03:46:36.815Z,18.62
2018-06-19T03:49:05.380Z,18.63
2018-06-19T03:51:33.702Z,18.68
2018-06-19T03:54:20.804Z,18.66
2018-06-19T03:56:49.122Z,18.65
2018-06-19T03:59:17.489Z,18.66
2018-06-19T04:01:45.918Z,18.66
2018-06-19T04:04:14.670Z,18.58
2018-06-19T04:06:43.120Z,18.57
2018-06-19T04:09:11.816Z,18.57
2018-06-19T04:11:40.115Z,18.59
2018-06-19T04:14:08.438Z,18.61
2018-06-19T04:16:37.106Z,18.62
2018-06-19T04:19:05.456Z,18.65
2018-06-19T04:21:33.740Z,18.65
2018-06-19T04:24:02.032Z,18.71
2018-06-19T04:26:30.444Z,18.77
2018-06-19T04:28:59.180Z,18.82
2018-06-19T04:31:27.638Z,18.87
2018-06-19T04:34:05.457Z,18.90
2018-06-19T04:36:33.838Z,19.01
2018-06-19T04:39:02.128Z,19.09
2018-06-19T04:41:30.759Z,19.15
2018-06-19T04:43:59.186Z,19.20
2018-06-19T04:46:28.354Z,19.18
2018-06-19T04:48:56.650Z,19.19
2018-06-19T04:51:25.090Z,19.16
2018-06-19T04:57:00.496Z,19.25
2018-06-19T04:59:29.427Z,19.26
2018-06-19T05:01:58.543Z,19.30
2018-06-19T05:04:27.757Z,19.31
2018-06-19T05:06:57.204Z,19.32
2018-06-19T05:09:25.958Z,19.37
2018-06-19T05:11:54.636Z,19.43
2018-06-19T05:14:28.182Z,19.49
2018-06-19T05:16:56.914Z,19.57
2018-06-19T05:19:25.474Z,19.59
2018-06-19T05:21:54.206Z,19.63
2018-06-19T05:24:28.398Z,19.63
2018-06-19T05:26:57.065Z,19.62
2018-06-19T05:29:25.444Z,19.64
2018-06-19T05:31:53.990Z,19.67
2018-06-19T05:34:45.174Z,19.67
2018-06-19T05:37:15.670Z,19.70
2018-06-19T05:39:46.676Z,19.73
2018-06-19T05:42:15.103Z,19.81
2018-06-19T05:44:43.914Z,19.87
2018-06-19T05:47:12.372Z,19.92
2018-06-19T05:49:40.732Z,19.99
2018-06-19T05:52:09.519Z,20.00
2018-06-19T05:54:43.114Z,20.03
2018-06-19T05:57:11.580Z,20.02
2018-06-19T05:59:39.990Z,20.04
2018-06-19T06:02:08.648Z,20.10
2018-06-19T06:04:37.165Z,20.15
2018-06-19T06:07:05.787Z,20.19
2018-06-19T06:09:34.382Z,20.19
2018-06-19T06:12:03.008Z,20.23
2018-06-19T06:14:36.550Z,20.29
2018-06-19T06:17:05.003Z,20.32
2018-06-19T06:19:33.539Z,20.32
2018-06-19T06:22:02.085Z,20.34
2018-06-19T06:24:30.642Z,20.42
2018-06-19T06:26:59.142Z,20.46
2018-06-19T06:29:28.046Z,20.43
2018-06-19T06:31:56.547Z,20.46
2018-06-19T06:34:25.108Z,20.48
2018-06-19T06:36:53.853Z,20.55
2018-06-19T06:39:22.326Z,20.55
2018-06-19T06:41:50.959Z,20.56
2018-06-19T06:44:19.814Z,20.61
2018-06-19T06:46:48.484Z,20.63
2018-06-19T06:49:17.353Z,20.71
2018-06-19T06:51:46.165Z,20.77
2018-06-19T06:54:14.901Z,20.79
2018-06-19T06:56:43.664Z,20.85
2018-06-19T06:59:12.364Z,20.94
2018-06-19T07:01:41.180Z,21.00
2018-06-19T07:04:11.015Z,21.11
2018-06-19T07:06:39.865Z,21.17
2018-06-19T07:09:10.168Z,21.19
2018-06-19T07:11:38.912Z,21.20
2018-06-19T07:14:07.872Z,21.18
2018-06-19T07:16:37.631Z,21.17
2018-06-19T07:19:06.339Z,21.22
2018-06-19T07:21:35.200Z,21.28
2018-06-19T07:24:03.702Z,21.31
2018-06-19T07:26:32.394Z,21.38
2018-06-19T07:29:00.918Z,21.46
2018-06-19T07:31:29.538Z,21.55
2018-06-19T07:34:11.970Z,21.56
2018-06-19T07:36:40.760Z,21.59
2018-06-19T07:39:10.058Z,21.65
2018-06-19T07:41:38.728Z,21.69
2018-06-19T07:44:07.539Z,21.67
2018-06-19T07:46:36.006Z,21.70
2018-06-19T07:49:04.580Z,21.78
2018-06-19T07:51:33.020Z,21.76
2018-06-19T07:54:06.538Z,21.72
2018-06-19T07:56:35.004Z,21.73
2018-06-19T07:59:03.402Z,21.69
2018-06-19T08:01:31.841Z,21.70
2018-06-19T08:04:05.395Z,21.78
2018-06-19T08:06:34.132Z,21.85
2018-06-19T08:09:02.565Z,21.92
2018-06-19T08:11:31.620Z,21.99
2018-06-19T08:14:00.474Z,22.03
2018-06-19T08:16:29.528Z,21.96
2018-06-19T08:18:58.391Z,22.08
2018-06-19T08:21:26.986Z,22.21
2018-06-19T08:24:05.184Z,22.36
2018-06-19T08:26:33.668Z,22.37
2018-06-19T08:29:02.295Z,22.43
2018-06-19T08:31:30.970Z,22.41
2018-06-19T08:34:11.992Z,22.45
2018-06-19T08:36:40.899Z,22.61
2018-06-19T08:39:11.652Z,22.68
2018-06-19T08:41:51.923Z,22.60
2018-06-19T08:44:43.090Z,22.58
2018-06-19T08:47:11.682Z,22.69
2018-06-19T08:49:40.194Z,22.79
2018-06-19T08:52:09.054Z,22.80
2018-06-19T08:54:42.640Z,22.67
2018-06-19T08:57:11.472Z,22.67
2018-06-19T08:59:40.010Z,22.66
2018-06-19T09:02:08.404Z,22.66
2018-06-19T09:04:46.417Z,22.78
2018-06-19T09:07:16.889Z,22.96
2018-06-19T09:09:45.344Z,22.96
2018-06-19T09:12:13.961Z,23.03
2018-06-19T09:14:48.345Z,23.14
2018-06-19T09:17:17.014Z,23.28
2018-06-19T09:19:47.006Z,23.32
2018-06-19T09:22:16.573Z,23.35
2018-06-19T09:24:45.174Z,23.38
2018-06-19T09:27:13.713Z,23.44
2018-06-19T09:29:42.259Z,23.56
2018-06-19T09:32:11.049Z,23.68
2018-06-19T09:34:58.204Z,23.76
2018-06-19T09:37:26.721Z,23.89
2018-06-19T09:39:55.162Z,23.89
2018-06-19T09:42:23.542Z,23.94
2018-06-19T09:44:51.890Z,24.04
2018-06-19T09:47:21.476Z,23.96
2018-06-19T09:49:50.699Z,23.96
2018-06-19T09:52:19.721Z,24.09
2018-06-19T09:54:48.706Z,24.15
2018-06-19T09:57:17.254Z,24.15
2018-06-19T09:59:45.908Z,24.09
2018-06-19T10:02:15.005Z,24.20
2018-06-19T10:04:43.548Z,24.30
2018-06-19T10:07:12.128Z,24.34
2018-06-19T10:09:41.080Z,24.50
2018-06-19T10:12:09.883Z,24.60
2018-06-19T10:14:38.488Z,24.56
2018-06-19T10:17:07.132Z,24.40
2018-06-19T10:19:35.831Z,24.42
2018-06-19T10:22:04.535Z,24.42
2018-06-19T10:24:52.076Z,24.55
2018-06-19T10:27:20.842Z,24.77
2018-06-19T10:29:49.734Z,24.83
2018-06-19T10:32:18.842Z,24.70
2018-06-19T10:34:47.816Z,24.60
2018-06-19T10:37:19.192Z,24.60
2018-06-19T10:39:47.950Z,24.58
2018-06-19T10:42:16.472Z,24.57
2018-06-19T10:44:44.998Z,24.56
2018-06-19T10:47:14.125Z,24.62
2018-06-19T10:49:43.082Z,24.71
2018-06-19T10:52:11.685Z,24.82
2018-06-19T10:54:45.340Z,24.82
2018-06-19T10:57:13.806Z,24.78
2018-06-19T10:59:55.274Z,24.90
2018-06-19T11:02:24.553Z,25.15
2018-06-19T11:04:53.117Z,25.26
2018-06-19T11:07:25.909Z,25.33
2018-06-19T11:09:54.317Z,25.36
2018-06-19T11:12:26.276Z,25.39
2018-06-19T11:14:56.580Z,25.40
2018-06-19T11:17:26.688Z,25.31
2018-06-19T11:19:58.037Z,25.34
2018-06-19T11:22:28.113Z,25.29
2018-06-19T11:25:00.420Z,25.31
2018-06-19T11:27:29.946Z,25.37
2018-06-19T11:29:58.368Z,25.29
2018-06-19T11:32:31.156Z,25.29
2018-06-19T11:35:13.526Z,25.29
2018-06-19T11:37:42.164Z,25.21
2018-06-19T11:40:14.210Z,25.20
2018-06-19T11:42:43.584Z,25.16
2018-06-19T11:45:13.770Z,25.15
2018-06-19T11:47:43.221Z,25.21
2018-06-19T11:50:11.578Z,25.12
2018-06-19T11:52:40.356Z,25.12
2018-06-19T11:55:08.932Z,25.04
2018-06-19T11:57:37.645Z,25.06
2018-06-19T12:00:06.291Z,25.10
2018-06-19T12:02:45.742Z,25.13
2018-06-19T12:05:19.618Z,25.17
2018-06-19T12:07:48.890Z,25.06
2018-06-19T12:10:17.382Z,25.05
2018-06-19T12:12:45.874Z,25.02
2018-06-19T12:15:14.378Z,25.00
2018-06-19T12:17:42.834Z,25.03
2018-06-19T12:20:11.545Z,25.00
2018-06-19T12:22:40.240Z,24.93
2018-06-19T12:25:09.066Z,24.90
2018-06-19T12:27:37.922Z,24.96
2018-06-19T12:30:06.660Z,24.97
2018-06-19T12:32:35.185Z,24.92
2018-06-19T12:35:03.964Z,24.95
2018-06-19T12:37:32.772Z,24.91
2018-06-19T12:40:01.343Z,24.92
2018-06-19T12:42:29.815Z,25.03
2018-06-19T12:44:58.542Z,25.06
2018-06-19T12:47:26.969Z,25.05
2018-06-19T12:50:33.934Z,25.08
2018-06-19T12:53:14.481Z,25.08
2018-06-19T12:55:59.771Z,25.07
2018-06-19T12:58:28.248Z,25.02
2018-06-19T13:00:56.834Z,25.04
2018-06-19T13:03:37.162Z,24.99
2018-06-19T13:06:22.190Z,25.08
2018-06-19T13:08:51.383Z,25.18
2018-06-19T13:11:20.053Z,25.19
2018-06-19T13:14:00.114Z,25.27
2018-06-19T13:16:39.700Z,25.26
2018-06-19T13:19:23.654Z,25.19
2018-06-19T13:21:52.361Z,25.10
2018-06-19T13:24:21.540Z,24.93
2018-06-19T13:26:50.114Z,24.87
2018-06-19T13:29:41.202Z,24.87
2018-06-19T13:32:10.691Z,24.86
2018-06-19T13:34:45.354Z,24.79
2018-06-19T13:37:14.177Z,24.76
2018-06-19T13:39:43.160Z,24.77
2018-06-19T13:43:21.440Z,24.83
2018-06-19T13:45:49.966Z,24.84
2018-06-19T13:48:18.868Z,24.78
2018-06-19T13:50:47.672Z,24.79
2018-06-19T13:53:16.359Z,24.72
2018-06-19T13:57:59.028Z,24.78
2018-06-19T14:00:27.494Z,24.67
2018-06-19T14:02:56.073Z,24.68
2018-06-19T14:05:24.630Z,24.64
2018-06-19T14:08:09.125Z,24.62
2018-06-19T14:10:48.884Z,24.65
2018-06-19T14:13:17.934Z,24.68
2018-06-19T14:15:55.894Z,24.68
2018-06-19T14:18:24.384Z,24.67
2018-06-19T14:20:52.701Z,24.65
2018-06-19T14:23:21.152Z,24.62
2018-06-19T14:25:49.742Z,24.61
2018-06-19T14:28:18.907Z,24.62
2018-06-19T14:30:48.001Z,24.63
2018-06-19T14:33:16.658Z,24.55
2018-06-19T14:35:45.410Z,24.48
2018-06-19T14:38:14.921Z,24.49
2018-06-19T14:40:43.894Z,24.45
2018-06-19T14:43:12.710Z,24.47
2018-06-19T14:45:59.937Z,24.48
2018-06-19T14:48:28.562Z,24.51
2018-06-19T14:50:57.169Z,24.50
2018-06-19T14:53:25.962Z,24.46
2018-06-19T14:55:55.030Z,24.48
2018-06-19T14:58:23.531Z,24.51
2018-06-19T15:00:52.095Z,24.58
2018-06-19T15:03:20.879Z,24.55
2018-06-19T15:05:58.708Z,24.52
2018-06-19T15:08:27.349Z,24.47
2018-06-19T15:10:56.465Z,24.51
2018-06-19T15:13:25.428Z,24.46
2018-06-19T15:15:54.020Z,24.44
2018-06-19T15:18:22.836Z,24.45
2018-06-19T15:20:51.434Z,24.42
2018-06-19T15:23:20.214Z,24.41
2018-06-19T15:26:07.341Z,24.38
2018-06-19T15:28:35.754Z,24.39
2018-06-19T15:31:04.305Z,24.34
2018-06-19T15:33:33.032Z,24.36
2018-06-19T15:36:01.544Z,24.36
2018-06-19T15:38:30.091Z,24.35
2018-06-19T15:40:59.707Z,24.37
2018-06-19T15:43:29.135Z,24.33
2018-06-19T15:45:57.870Z,24.33
2018-06-19T15:48:27.291Z,24.30
2018-06-19T15:50:57.319Z,24.32
2018-06-19T15:53:26.503Z,24.31
2018-06-19T15:56:08.960Z,24.34
2018-06-19T15:58:38.959Z,24.36
2018-06-19T16:01:08.331Z,24.34
2018-06-19T16:03:38.848Z,24.30
2018-06-19T16:06:07.647Z,24.28
2018-06-19T16:08:36.244Z,24.29
2018-06-19T16:11:05.927Z,24.31
2018-06-19T16:13:35.263Z,24.29
2018-06-19T16:16:04.354Z,24.34
2018-06-19T16:18:33.279Z,24.34
2018-06-19T16:21:01.845Z,24.33
2018-06-19T16:23:30.311Z,24.35
2018-06-19T16:25:59.216Z,24.30
2018-06-19T16:28:28.307Z,24.34
2018-06-19T16:30:57.100Z,24.30
2018-06-19T16:33:26.228Z,24.29
2018-06-19T16:35:55.598Z,24.27
2018-06-19T16:38:24.173Z,24.24
2018-06-19T16:40:53.516Z,24.24
2018-06-19T16:43:22.105Z,24.21
2018-06-19T16:46:00.276Z,24.19
2018-06-19T16:48:28.921Z,24.16
2018-06-19T16:50:57.477Z,24.16
2018-06-19T16:53:26.046Z,24.13
2018-06-19T16:56:04.141Z,24.15
2018-06-19T16:58:32.769Z,24.16
2018-06-19T17:01:01.240Z,24.16
2018-06-19T17:03:29.978Z,24.13
2018-06-19T17:05:58.592Z,24.12
2018-06-19T17:08:27.088Z,24.08
2018-06-19T17:10:55.714Z,24.11
2018-06-19T17:13:24.371Z,24.12
2018-06-19T17:15:58.170Z,24.16
2018-06-19T17:18:26.961Z,24.12
2018-06-19T17:20:57.177Z,24.08
2018-06-19T17:23:26.209Z,24.11
2018-06-19T17:25:57.084Z,24.07
2018-06-19T17:28:25.663Z,24.08
2018-06-19T17:30:54.971Z,24.08
2018-06-19T17:33:24.863Z,24.07
2018-06-19T17:35:54.423Z,24.11
2018-06-19T17:38:23.105Z,24.12
2018-06-19T17:40:52.033Z,24.08
2018-06-19T17:43:21.890Z,24.07
2018-06-19T17:45:50.597Z,24.06
2018-06-19T17:48:19.111Z,24.04
2018-06-19T17:50:48.541Z,24.06
2018-06-19T17:53:17.367Z,24.08
2018-06-19T17:55:46.257Z,24.06
2018-06-19T17:58:14.929Z,24.04
2018-06-19T18:00:43.538Z,24.03
2018-06-19T18:03:12.477Z,23.99
2018-06-19T18:05:41.552Z,23.98
2018-06-19T18:08:10.231Z,23.96
2018-06-19T18:10:38.882Z,23.94
2018-06-19T18:13:07.628Z,23.92
2018-06-19T18:15:36.447Z,23.91
2018-06-19T18:18:05.085Z,23.90
2018-06-19T18:20:33.884Z,23.91
2018-06-19T18:23:02.567Z,23.88
2018-06-19T18:25:31.390Z,23.89
2018-06-19T18:28:00.276Z,23.87
2018-06-19T18:30:28.909Z,23.85
2018-06-19T18:32:57.649Z,23.80
2018-06-19T18:35:27.880Z,23.77
2018-06-19T18:37:58.714Z,23.77
2018-06-19T18:40:29.217Z,23.76
2018-06-19T18:42:57.811Z,23.76
2018-06-19T18:45:26.569Z,23.75
2018-06-19T18:47:55.775Z,23.74
2018-06-19T18:50:25.273Z,23.73
2018-06-19T18:52:53.730Z,23.69
2018-06-19T18:55:22.316Z,23.63
2018-06-19T18:57:51.105Z,23.60
2018-06-19T19:00:19.660Z,23.58
2018-06-19T19:02:48.690Z,23.52
2018-06-19T19:05:17.473Z,23.50
2018-06-19T19:07:46.487Z,23.48
2018-06-19T19:10:20.464Z,23.49
2018-06-19T19:12:48.938Z,23.49
2018-06-19T19:15:22.869Z,23.49
2018-06-19T19:17:56.821Z,23.50
2018-06-19T19:20:25.953Z,23.45
2018-06-19T19:22:54.445Z,23.41
2018-06-19T19:25:28.371Z,23.39
2018-06-19T19:28:02.266Z,23.37
2018-06-19T19:30:31.948Z,23.34
2018-06-19T19:33:00.656Z,23.35
2018-06-19T19:35:29.407Z,23.35
2018-06-19T19:38:02.954Z,23.36
2018-06-19T19:40:31.470Z,23.36
2018-06-19T19:43:00.334Z,23.38
2018-06-19T19:45:51.467Z,23.37
2018-06-19T19:48:25.435Z,23.37
2018-06-19T19:50:54.623Z,23.34
2018-06-19T19:53:23.269Z,23.29
2018-06-19T19:56:06.549Z,23.31
2018-06-19T19:58:40.463Z,23.30
2018-06-19T20:01:09.052Z,23.30
2018-06-19T20:03:37.521Z,23.30
2018-06-19T20:06:06.131Z,23.30
2018-06-19T20:08:34.621Z,23.28
2018-06-19T20:11:03.737Z,23.26
2018-06-19T20:13:32.490Z,23.23
2018-06-19T20:16:10.751Z,23.21
2018-06-19T20:18:39.289Z,23.17
2018-06-19T20:21:09.032Z,23.16
2018-06-19T20:23:37.775Z,23.16
2018-06-19T20:26:06.371Z,23.15
2018-06-19T20:28:34.851Z,23.13
2018-06-19T20:31:03.640Z,23.11
2018-06-19T20:33:32.382Z,23.08
2018-06-19T20:36:10.338Z,23.02
2018-06-19T20:38:39.001Z,22.95
2018-06-19T20:41:07.777Z,22.89
2018-06-19T20:43:36.501Z,22.84
2018-06-19T20:46:05.682Z,22.79
2018-06-19T20:48:34.272Z,22.79
2018-06-19T20:51:02.880Z,22.74
2018-06-19T20:53:31.552Z,22.72
2018-06-19T20:56:05.304Z,22.68
2018-06-19T20:58:33.987Z,22.67
2018-06-19T21:01:02.493Z,22.64
2018-06-19T21:03:31.231Z,22.60
2018-06-19T21:06:09.793Z,22.58
2018-06-19T21:08:41.571Z,22.57
2018-06-19T21:11:11.882Z,22.55
2018-06-19T21:13:40.361Z,22.51
2018-06-19T21:16:09.603Z,22.48
2018-06-19T21:18:38.441Z,22.45
2018-06-19T21:21:07.081Z,22.41
2018-06-19T21:23:35.556Z,22.39
2018-06-19T21:26:04.794Z,22.35
2018-06-19T21:28:37.006Z,22.36
2018-06-19T21:31:05.669Z,22.37
2018-06-19T21:33:34.180Z,22.34
2018-06-19T21:36:12.319Z,22.28
2018-06-19T21:38:41.659Z,22.28
2018-06-19T21:41:10.260Z,22.25
2018-06-19T21:43:38.764Z,22.19
2018-06-19T21:46:07.213Z,22.14
2018-06-19T21:48:35.623Z,22.13
2018-06-19T21:51:04.063Z,22.05
2018-06-19T21:53:32.397Z,22.06
2018-06-19T21:56:02.107Z,22.05
2018-06-19T21:58:30.452Z,22.04
2018-06-19T22:00:58.828Z,22.04
2018-06-19T22:03:27.381Z,22.02
2018-06-19T22:05:55.893Z,22.01
2018-06-19T22:08:28.437Z,22.00
2018-06-19T22:10:56.779Z,22.00
2018-06-19T22:13:25.541Z,22.00
2018-06-19T22:15:53.989Z,21.97
2018-06-19T22:18:22.522Z,21.95
2018-06-19T22:20:50.927Z,21.93
2018-06-19T22:23:19.360Z,21.87
2018-06-19T22:25:52.882Z,21.92
2018-06-19T22:28:21.338Z,21.89
2018-06-19T22:30:49.712Z,21.87
2018-06-19T22:33:18.203Z,21.83
2018-06-19T22:35:46.886Z,21.83
2018-06-19T22:38:16.294Z,21.81
2018-06-19T22:40:44.956Z,21.78
2018-06-19T22:43:13.930Z,21.69
2018-06-19T22:45:42.689Z,21.60
2018-06-19T22:48:11.081Z,21.52
2018-06-19T22:50:40.996Z,21.51
2018-06-19T22:53:10.113Z,21.47
2018-06-19T22:55:39.522Z,21.35
2018-06-19T22:58:07.888Z,21.37
2018-06-19T23:00:36.291Z,21.42
2018-06-19T23:03:05.676Z,21.46
2018-06-19T23:05:56.756Z,21.45
2018-06-19T23:08:25.264Z,21.51
2018-06-19T23:10:53.986Z,21.56
2018-06-19T23:13:22.675Z,21.61
2018-06-19T23:15:56.775Z,21.63
2018-06-19T23:18:25.165Z,21.65
2018-06-19T23:20:53.919Z,21.64
2018-06-19T23:23:22.507Z,21.63
2018-06-19T23:28:44.093Z,21.65
2018-06-19T23:31:12.840Z,21.56
2018-06-19T23:33:41.804Z,21.54
2018-06-19T23:36:10.648Z,21.56
2018-06-19T23:38:39.313Z,21.57
2018-06-19T23:41:07.968Z,21.55
2018-06-19T23:43:36.254Z,21.54
2018-06-19T23:46:18.392Z,21.53
2018-06-19T23:48:46.947Z,21.56
2018-06-19T23:51:15.253Z,21.55
2018-06-19T23:53:44.116Z,21.53
2018-06-19T23:56:12.708Z,21.56
2018-06-19T23:58:41.303Z,21.52
